createdAt,value
2022-12-17T00:01:41.541Z,28.93
2022-12-17T00:04:26.461Z,27.50
2022-12-17T00:07:11.337Z,27.30
2022-12-17T00:09:56.193Z,26.60
2022-12-17T00:12:41.276Z,21.70
2022-12-17T00:15:26.775Z,26.00
2022-12-17T00:18:11.786Z,26.50
2022-12-17T00:20:56.588Z,28.70
2022-12-17T00:23:41.311Z,29.27
2022-12-17T00:26:27.152Z,27.33
2022-12-17T00:29:12.013Z,29.87
2022-12-17T00:31:56.751Z,23.00
2022-12-17T00:34:58.607Z,25.60
2022-12-17T00:37:43.865Z,24.37
2022-12-17T00:40:28.843Z,21.57
2022-12-17T00:43:28.879Z,26.80
2022-12-17T00:46:14.451Z,23.67
2022-12-17T00:48:59.791Z,24.63
2022-12-17T00:51:45.414Z,23.63
2022-12-17T00:54:30.574Z,26.93
2022-12-17T00:57:16.290Z,27.70
2022-12-17T01:00:01.382Z,25.73
2022-12-17T01:02:46.677Z,29.80
2022-12-17T01:05:46.298Z,21.90
2022-12-17T01:08:33.570Z,24.17
2022-12-17T01:11:25.419Z,23.63
2022-12-17T01:14:11.528Z,25.97
2022-12-17T01:16:56.639Z,25.33
2022-12-17T01:19:42.464Z,28.27
2022-12-17T01:22:28.598Z,22.67
2022-12-17T01:25:13.778Z,23.20
2022-12-17T01:27:59.050Z,25.03
2022-12-17T01:30:45.278Z,21.00
2022-12-17T01:33:30.719Z,26.27
2022-12-17T01:36:17.739Z,23.13
2022-12-17T01:39:02.840Z,24.13
2022-12-17T01:41:48.108Z,21.17
2022-12-17T01:44:58.210Z,24.90
2022-12-17T01:47:56.520Z,23.83
2022-12-17T01:50:44.884Z,19.47
2022-12-17T01:53:30.719Z,23.37
2022-12-17T01:56:17.214Z,22.20
2022-12-17T01:59:02.516Z,21.40
2022-12-17T02:01:47.780Z,26.53
2022-12-17T02:04:33.228Z,21.63
2022-12-17T02:07:24.708Z,22.60
2022-12-17T02:10:41.425Z,21.33
2022-12-17T02:13:37.604Z,22.17
2022-12-17T02:16:30.302Z,16.97
2022-12-17T02:19:43.195Z,18.77
2022-12-17T02:22:42.728Z,20.57
2022-12-17T02:26:00.464Z,15.17
2022-12-17T02:28:46.824Z,18.67
2022-12-17T02:31:34.740Z,20.90
2022-12-17T02:34:20.440Z,15.90
2022-12-17T02:37:08.262Z,20.40
2022-12-17T02:39:55.805Z,13.33
2022-12-17T02:42:44.226Z,18.93
2022-12-17T02:45:31.322Z,18.27
2022-12-17T02:48:18.087Z,16.50
2022-12-17T02:51:04.399Z,17.63
2022-12-17T02:53:51.973Z,18.57
2022-12-17T02:56:37.190Z,22.37
2022-12-17T02:59:22.538Z,19.67
2022-12-17T03:02:08.218Z,16.43
2022-12-17T03:04:53.630Z,16.03
2022-12-17T03:07:38.815Z,16.93
2022-12-17T03:10:24.473Z,17.17
2022-12-17T03:13:09.810Z,16.47
2022-12-17T03:15:55.046Z,17.47
2022-12-17T03:18:40.290Z,15.03
2022-12-17T03:21:25.311Z,19.80
2022-12-17T03:24:10.230Z,18.20
2022-12-17T03:26:55.115Z,18.07
2022-12-17T03:29:40.227Z,16.77
2022-12-17T03:32:25.441Z,15.87
2022-12-17T03:35:10.511Z,15.50
2022-12-17T03:37:55.672Z,15.77
2022-12-17T03:40:40.798Z,15.30
2022-12-17T03:43:27.339Z,14.40
2022-12-17T03:46:13.462Z,16.90
2022-12-17T03:48:58.750Z,14.57
2022-12-17T03:51:43.951Z,15.07
2022-12-17T03:54:42.858Z,17.17
2022-12-17T03:57:28.108Z,15.10
2022-12-17T04:00:13.188Z,17.00
2022-12-17T04:02:58.573Z,14.33
2022-12-17T04:05:43.868Z,15.40
2022-12-17T04:08:29.115Z,15.27
2022-12-17T04:11:14.458Z,17.80
2022-12-17T04:13:59.668Z,15.30
2022-12-17T04:16:44.927Z,17.07
2022-12-17T04:19:29.923Z,17.23
2022-12-17T04:22:15.070Z,17.87
2022-12-17T04:25:00.130Z,19.63
2022-12-17T04:27:45.353Z,17.40
2022-12-17T04:30:31.079Z,16.57
2022-12-17T04:33:16.161Z,13.67
2022-12-17T04:36:01.326Z,17.83
2022-12-17T04:38:46.317Z,19.60
2022-12-17T04:41:31.611Z,16.47
2022-12-17T04:44:16.466Z,12.00
2022-12-17T04:47:01.541Z,13.10
2022-12-17T04:49:46.638Z,13.87
2022-12-17T04:52:31.778Z,16.20
2022-12-17T04:55:16.963Z,15.17
2022-12-17T04:58:02.063Z,20.33
2022-12-17T05:00:47.330Z,18.70
2022-12-17T05:03:34.355Z,17.47
2022-12-17T05:06:20.204Z,21.43
2022-12-17T05:09:05.608Z,18.00
2022-12-17T05:11:51.282Z,22.43
2022-12-17T05:14:36.574Z,19.77
2022-12-17T05:17:22.188Z,22.03
2022-12-17T05:20:07.107Z,25.53
2022-12-17T05:22:52.436Z,26.90
2022-12-17T05:25:37.621Z,25.50
2022-12-17T05:28:22.703Z,23.20
2022-12-17T05:31:12.590Z,18.47
2022-12-17T05:33:57.711Z,18.77
2022-12-17T05:36:42.747Z,22.90
2022-12-17T05:39:28.101Z,20.00
2022-12-17T05:42:13.305Z,14.73
2022-12-17T05:44:58.022Z,21.40
2022-12-17T05:47:43.409Z,19.67
2022-12-17T05:50:28.587Z,20.97
2022-12-17T05:53:20.489Z,19.70
2022-12-17T05:56:14.358Z,20.40
2022-12-17T05:58:59.405Z,23.77
2022-12-17T06:01:44.419Z,24.10
2022-12-17T06:04:29.600Z,27.40
2022-12-17T06:07:14.272Z,27.67
2022-12-17T06:09:59.445Z,23.27
2022-12-17T06:12:44.199Z,31.03
2022-12-17T06:15:29.306Z,26.63
2022-12-17T06:18:17.102Z,26.57
2022-12-17T06:21:03.312Z,26.03
2022-12-17T06:23:48.270Z,25.53
2022-12-17T06:26:33.038Z,30.27
2022-12-17T06:29:18.001Z,31.27
2022-12-17T06:32:02.818Z,28.37
2022-12-17T06:34:47.953Z,27.60
2022-12-17T06:37:32.727Z,28.13
2022-12-17T06:40:17.789Z,28.83
2022-12-17T06:43:11.601Z,34.03
2022-12-17T06:45:56.532Z,23.30
2022-12-17T06:48:41.454Z,19.80
2022-12-17T06:51:26.835Z,22.13
2022-12-17T06:54:11.637Z,21.80
2022-12-17T06:56:56.850Z,18.13
2022-12-17T06:59:41.950Z,21.67
2022-12-17T07:02:29.648Z,21.33
2022-12-17T07:05:15.159Z,29.43
2022-12-17T07:08:00.433Z,29.33
2022-12-17T07:10:45.444Z,19.83
2022-12-17T07:13:30.324Z,21.17
2022-12-17T07:16:15.196Z,19.73
2022-12-17T07:19:00.121Z,20.77
2022-12-17T07:21:45.488Z,17.47
2022-12-17T07:24:30.874Z,20.60
2022-12-17T07:27:16.160Z,21.23
2022-12-17T07:30:01.303Z,24.37
2022-12-17T07:32:46.171Z,24.37
2022-12-17T07:35:30.995Z,21.63
2022-12-17T07:38:20.854Z,22.23
2022-12-17T07:41:05.547Z,23.87
2022-12-17T07:43:53.272Z,33.80
2022-12-17T07:46:39.216Z,27.63
2022-12-17T07:49:25.891Z,27.83
2022-12-17T07:52:11.853Z,35.83
2022-12-17T07:54:56.800Z,42.53
2022-12-17T07:57:42.031Z,35.47
2022-12-17T08:00:27.604Z,35.80
2022-12-17T08:03:17.779Z,41.47
2022-12-17T08:06:03.069Z,38.73
2022-12-17T08:08:47.921Z,40.83
2022-12-17T08:11:33.196Z,46.03
2022-12-17T08:14:18.355Z,45.03
2022-12-17T08:17:03.438Z,43.23
2022-12-17T08:19:48.507Z,50.60
2022-12-17T08:22:33.482Z,41.33
2022-12-17T08:25:18.267Z,39.20
2022-12-17T08:28:07.345Z,41.33
2022-12-17T08:30:55.795Z,44.03
2022-12-17T08:33:40.810Z,43.60
2022-12-17T08:36:26.090Z,44.23
2022-12-17T08:39:10.973Z,40.80
2022-12-17T08:42:06.603Z,31.97
2022-12-17T08:44:51.918Z,34.00
2022-12-17T08:47:37.059Z,31.20
2022-12-17T08:50:24.001Z,29.73
2022-12-17T08:53:18.988Z,29.77
2022-12-17T08:56:04.004Z,31.83
2022-12-17T08:58:48.940Z,25.07
2022-12-17T09:01:33.924Z,26.37
2022-12-17T09:04:19.120Z,20.77
2022-12-17T09:07:04.000Z,22.27
2022-12-17T09:09:49.101Z,22.47
2022-12-17T09:12:34.258Z,19.83
2022-12-17T09:15:19.243Z,23.60
2022-12-17T09:18:04.677Z,23.27
2022-12-17T09:23:36.529Z,25.43
2022-12-17T09:26:22.116Z,29.73
2022-12-17T09:29:09.013Z,34.43
2022-12-17T09:31:54.399Z,35.10
2022-12-17T09:34:39.667Z,30.77
2022-12-17T09:37:24.834Z,30.70
2022-12-17T09:40:09.770Z,28.73
2022-12-17T09:43:20.838Z,21.80
2022-12-17T09:46:27.859Z,27.93
2022-12-17T09:49:20.241Z,30.23
2022-12-17T09:52:05.637Z,30.07
2022-12-17T09:55:07.170Z,31.40
2022-12-17T09:57:55.678Z,31.23
2022-12-17T10:00:45.097Z,31.80
2022-12-17T10:03:33.923Z,26.53
2022-12-17T10:06:25.891Z,28.87
2022-12-17T10:09:16.758Z,29.47
2022-12-17T10:12:02.138Z,23.00
2022-12-17T10:14:46.912Z,24.80
2022-12-17T10:17:38.165Z,25.07
2022-12-17T10:20:37.113Z,23.30
2022-12-17T10:23:22.227Z,23.83
2022-12-17T10:26:12.083Z,21.53
2022-12-17T10:28:57.395Z,24.97
2022-12-17T10:32:07.092Z,22.53
2022-12-17T10:35:01.776Z,21.60
2022-12-17T10:37:50.604Z,21.20
2022-12-17T10:40:42.473Z,20.73
2022-12-17T10:43:45.840Z,21.13
2022-12-17T10:46:40.995Z,24.70
2022-12-17T10:49:35.426Z,23.23
2022-12-17T10:52:47.021Z,23.60
2022-12-17T10:55:45.074Z,20.77
2022-12-17T10:58:37.584Z,24.87
2022-12-17T11:01:23.865Z,23.20
2022-12-17T11:04:15.875Z,21.17
2022-12-17T11:07:06.103Z,26.80
2022-12-17T11:09:58.815Z,20.67
2022-12-17T11:13:08.028Z,19.77
2022-12-17T11:16:04.063Z,21.27
2022-12-17T11:18:56.032Z,17.27
2022-12-17T11:21:49.824Z,19.93
2022-12-17T11:24:45.898Z,18.60
2022-12-17T11:27:38.825Z,19.87
2022-12-17T11:30:34.306Z,19.13
2022-12-17T11:33:57.313Z,20.03
2022-12-17T11:36:51.706Z,20.00
2022-12-17T11:39:48.082Z,22.77
2022-12-17T11:42:41.453Z,20.80
2022-12-17T11:45:40.009Z,22.03
2022-12-17T11:48:40.076Z,21.57
2022-12-17T11:51:34.261Z,21.17
2022-12-17T11:54:31.219Z,24.37
2022-12-17T11:57:30.277Z,22.20
2022-12-17T12:00:37.242Z,24.70
2022-12-17T12:03:34.547Z,22.30
2022-12-17T12:06:27.277Z,28.57
2022-12-17T12:09:35.323Z,23.90
2022-12-17T12:12:46.780Z,26.27
2022-12-17T12:15:53.225Z,25.87
2022-12-17T12:18:50.221Z,20.10
2022-12-17T12:21:48.409Z,22.63
2022-12-17T12:25:15.582Z,20.50
2022-12-17T12:28:13.617Z,21.53
2022-12-17T12:31:17.224Z,20.13
2022-12-17T12:34:11.948Z,15.37
2022-12-17T12:36:59.410Z,19.00
2022-12-17T12:39:55.179Z,19.53
2022-12-17T12:43:09.839Z,16.70
2022-12-17T12:46:29.618Z,20.90
2022-12-17T12:49:53.055Z,20.60
2022-12-17T12:52:44.472Z,20.50
2022-12-17T12:55:30.263Z,19.00
2022-12-17T12:58:23.998Z,19.30
2022-12-17T13:01:08.987Z,19.03
2022-12-17T13:04:07.868Z,16.70
2022-12-17T13:06:57.077Z,14.67
2022-12-17T13:09:32.195Z,16.67
2022-12-17T13:12:03.193Z,14.87
2022-12-17T13:14:44.928Z,14.17
2022-12-17T13:17:14.312Z,15.97
2022-12-17T13:19:43.612Z,16.00
2022-12-17T13:22:23.322Z,18.40
2022-12-17T13:24:52.832Z,15.40
2022-12-17T13:27:31.901Z,16.63
2022-12-17T13:30:13.932Z,15.33
2022-12-17T13:33:18.948Z,19.67
2022-12-17T13:35:57.460Z,19.07
2022-12-17T13:38:45.235Z,17.50
2022-12-17T13:41:14.324Z,21.50
2022-12-17T13:43:47.891Z,19.80
2022-12-17T13:46:24.516Z,21.30
2022-12-17T13:48:54.992Z,23.23
2022-12-17T13:51:22.619Z,20.93
2022-12-17T13:54:04.043Z,25.57
2022-12-17T13:56:37.574Z,26.37
2022-12-17T13:59:09.253Z,26.00
2022-12-17T14:01:45.836Z,24.77
2022-12-17T14:04:24.374Z,24.10
2022-12-17T14:06:52.573Z,24.20
2022-12-17T14:09:22.888Z,25.10
2022-12-17T14:12:08.718Z,29.07
2022-12-17T14:14:38.164Z,29.50
2022-12-17T14:17:04.800Z,25.43
2022-12-17T14:19:33.163Z,28.57
2022-12-17T14:22:00.592Z,26.63
2022-12-17T14:24:29.347Z,28.43
2022-12-17T14:26:59.518Z,30.33
2022-12-17T14:29:31.181Z,27.43
2022-12-17T14:32:00.528Z,29.80
2022-12-17T14:34:27.574Z,30.67
2022-12-17T14:37:00.852Z,29.40
2022-12-17T14:39:32.976Z,28.97
2022-12-17T14:42:32.334Z,29.67
2022-12-17T14:45:06.777Z,27.17
2022-12-17T14:47:35.625Z,30.00
2022-12-17T14:50:08.403Z,28.47
2022-12-17T14:52:45.131Z,28.73
2022-12-17T14:55:55.251Z,30.40
2022-12-17T14:58:23.748Z,35.23
2022-12-17T15:01:12.104Z,38.73
2022-12-17T15:03:41.331Z,35.20
2022-12-17T15:06:11.201Z,33.00
2022-12-17T15:08:43.326Z,36.70
2022-12-17T15:11:14.924Z,34.97
2022-12-17T15:13:42.311Z,35.57
2022-12-17T15:16:10.734Z,36.30
2022-12-17T15:18:37.924Z,31.70
2022-12-17T15:21:05.036Z,33.97
2022-12-17T15:23:32.005Z,33.33
2022-12-17T15:25:58.454Z,36.83
2022-12-17T15:28:24.938Z,43.50
2022-12-17T15:30:51.550Z,38.53
2022-12-17T15:33:18.167Z,34.80
2022-12-17T15:35:44.641Z,37.57
2022-12-17T15:38:12.366Z,35.43
2022-12-17T15:40:39.186Z,35.40
2022-12-17T15:43:12.029Z,31.73
2022-12-17T15:45:38.443Z,31.30
2022-12-17T15:48:05.305Z,29.63
2022-12-17T15:50:31.849Z,30.93
2022-12-17T15:52:58.570Z,33.37
2022-12-17T15:55:25.030Z,30.67
2022-12-17T15:57:51.553Z,28.77
2022-12-17T16:00:18.328Z,32.63
2022-12-17T16:02:45.173Z,30.37
2022-12-17T16:05:12.430Z,26.43
2022-12-17T16:07:38.930Z,26.50
2022-12-17T16:10:06.792Z,33.50
2022-12-17T16:12:33.424Z,31.57
2022-12-17T16:14:59.971Z,29.80
2022-12-17T16:17:26.650Z,30.27
2022-12-17T16:19:53.119Z,30.20
2022-12-17T16:22:19.674Z,30.10
2022-12-17T16:24:46.231Z,31.63
2022-12-17T16:27:14.033Z,32.53
2022-12-17T16:29:40.575Z,35.27
2022-12-17T16:32:07.056Z,35.13
2022-12-17T16:34:33.609Z,33.23
2022-12-17T16:37:01.480Z,33.43
2022-12-17T16:39:28.228Z,33.07
2022-12-17T16:41:55.088Z,34.37
2022-12-17T16:44:21.616Z,38.77
2022-12-17T16:46:48.180Z,62.23
2022-12-17T16:49:20.136Z,73.87
2022-12-17T16:51:48.808Z,64.50
2022-12-17T16:54:24.296Z,59.60
2022-12-17T16:56:51.060Z,38.60
2022-12-17T16:59:18.756Z,34.37
2022-12-17T17:01:48.785Z,34.67
2022-12-17T17:04:17.054Z,32.43
2022-12-17T17:06:46.600Z,33.73
2022-12-17T17:09:14.399Z,33.93
2022-12-17T17:11:41.265Z,34.17
2022-12-17T17:14:08.186Z,35.40
2022-12-17T17:16:35.190Z,34.67
2022-12-17T17:19:03.672Z,36.97
2022-12-17T17:21:35.981Z,33.23
2022-12-17T17:24:16.842Z,33.80
2022-12-17T17:26:47.887Z,35.23
2022-12-17T17:29:14.722Z,32.57
2022-12-17T17:34:27.938Z,35.60
2022-12-17T17:36:54.475Z,37.87
2022-12-17T17:39:21.078Z,38.40
2022-12-17T17:41:47.777Z,37.77
2022-12-17T17:44:15.394Z,44.87
2022-12-17T17:46:42.245Z,36.17
2022-12-17T17:49:10.491Z,38.73
2022-12-17T17:54:27.578Z,34.57
2022-12-17T17:56:55.403Z,35.57
2022-12-17T17:59:27.806Z,37.13
2022-12-17T18:01:57.985Z,31.83
2022-12-17T18:04:24.664Z,38.23
2022-12-17T18:09:38.140Z,36.27
2022-12-17T18:12:24.827Z,39.07
2022-12-17T18:15:14.645Z,40.10
2022-12-17T18:17:37.787Z,39.60
2022-12-17T18:20:04.842Z,48.50
2022-12-17T18:22:31.319Z,45.53
2022-12-17T18:24:57.806Z,42.73
2022-12-17T18:27:24.243Z,40.07
2022-12-17T18:29:50.712Z,39.77
2022-12-17T18:32:17.231Z,42.90
2022-12-17T18:34:43.764Z,46.10
2022-12-17T18:37:10.348Z,45.53
2022-12-17T18:39:37.696Z,40.03
2022-12-17T18:42:23.134Z,43.63
2022-12-17T18:44:49.738Z,37.43
2022-12-17T18:47:16.301Z,37.83
2022-12-17T18:49:42.827Z,41.13
2022-12-17T18:52:14.737Z,35.73
2022-12-17T18:54:43.194Z,42.40
2022-12-17T18:57:09.689Z,35.83
2022-12-17T18:59:36.222Z,39.37
2022-12-17T19:02:03.845Z,36.43
2022-12-17T19:04:32.714Z,35.70
2022-12-17T19:06:59.267Z,38.37
2022-12-17T19:09:29.013Z,40.17
2022-12-17T19:11:56.040Z,44.27
2022-12-17T19:14:23.341Z,40.13
2022-12-17T19:16:51.633Z,41.90
2022-12-17T19:19:19.360Z,40.70
2022-12-17T19:21:46.403Z,44.77
2022-12-17T19:24:15.795Z,39.90
2022-12-17T19:26:43.190Z,38.47
2022-12-17T19:29:12.411Z,41.70
2022-12-17T19:31:39.140Z,37.97
2022-12-17T19:34:07.972Z,41.27
2022-12-17T19:36:35.907Z,42.90
2022-12-17T19:39:07.473Z,43.60
2022-12-17T19:41:34.929Z,40.23
2022-12-17T19:44:04.068Z,36.60
2022-12-17T19:46:32.109Z,41.40
2022-12-17T19:48:58.692Z,37.03
2022-12-17T19:51:29.430Z,37.47
2022-12-17T19:53:56.724Z,42.67
2022-12-17T19:56:29.516Z,41.90
2022-12-17T19:59:00.672Z,40.20
2022-12-17T20:01:30.303Z,40.97
2022-12-17T20:03:57.561Z,46.67
2022-12-17T20:06:27.012Z,88.27
2022-12-17T20:08:53.873Z,250.30
2022-12-17T20:11:47.128Z,331.73
2022-12-17T20:14:15.155Z,268.43
2022-12-17T20:16:46.207Z,58.37
2022-12-17T20:19:18.609Z,46.77
2022-12-17T20:21:45.361Z,46.97
2022-12-17T20:24:12.402Z,50.73
2022-12-17T20:26:39.541Z,46.20
2022-12-17T20:29:06.580Z,42.17
2022-12-17T20:31:33.755Z,40.43
2022-12-17T20:34:01.527Z,42.57
2022-12-17T20:36:28.084Z,46.23
2022-12-17T20:38:54.615Z,47.13
2022-12-17T20:41:23.855Z,52.67
2022-12-17T20:43:51.156Z,59.80
2022-12-17T20:46:21.055Z,61.57
2022-12-17T20:48:48.140Z,52.60
2022-12-17T20:51:23.503Z,56.27
2022-12-17T20:53:50.932Z,53.97
2022-12-17T20:56:21.491Z,60.60
2022-12-17T20:58:52.201Z,54.23
2022-12-17T21:01:21.551Z,56.23
2022-12-17T21:03:50.470Z,54.97
2022-12-17T21:06:23.131Z,49.33
2022-12-17T21:08:51.944Z,40.67
2022-12-17T21:11:22.670Z,57.87
2022-12-17T21:13:49.268Z,83.63
2022-12-17T21:16:18.902Z,96.63
2022-12-17T21:18:45.640Z,55.17
2022-12-17T21:21:16.828Z,72.23
2022-12-17T21:23:43.856Z,60.60
2022-12-17T21:26:21.223Z,64.87
2022-12-17T21:28:49.884Z,48.47
2022-12-17T21:31:25.173Z,48.50
2022-12-17T21:33:55.250Z,44.43
2022-12-17T21:36:22.808Z,48.03
2022-12-17T21:38:51.272Z,47.57
2022-12-17T21:41:23.261Z,54.67
2022-12-17T21:44:01.817Z,56.10
2022-12-17T21:46:28.931Z,55.73
2022-12-17T21:48:58.208Z,57.73
2022-12-17T21:51:25.559Z,52.33
2022-12-17T21:53:58.046Z,52.93
2022-12-17T21:56:25.323Z,51.80
2022-12-17T21:58:57.206Z,45.07
2022-12-17T22:01:26.430Z,39.67
2022-12-17T22:03:54.676Z,42.20
2022-12-17T22:06:25.326Z,52.50
2022-12-17T22:08:56.175Z,42.63
2022-12-17T22:11:27.300Z,48.53
2022-12-17T22:14:08.065Z,49.67
2022-12-17T22:16:42.328Z,51.97
2022-12-17T22:19:10.931Z,59.63
2022-12-17T22:21:39.616Z,63.93
2022-12-17T22:24:06.975Z,63.87
2022-12-17T22:26:36.565Z,60.43
2022-12-17T22:29:03.423Z,63.50
2022-12-17T22:31:48.434Z,60.43
2022-12-17T22:35:24.525Z,56.93
2022-12-17T22:38:17.895Z,57.40
2022-12-17T22:43:57.335Z,59.00
2022-12-17T22:44:43.343Z,55.63
2022-12-17T22:45:41.644Z,56.13
2022-12-17T22:48:10.085Z,48.37
2022-12-17T22:50:41.923Z,50.37
2022-12-17T22:53:17.731Z,46.23
2022-12-17T22:55:44.789Z,47.53
2022-12-17T22:58:11.573Z,47.27
2022-12-17T23:00:38.151Z,49.53
2022-12-17T23:03:05.045Z,47.93
2022-12-17T23:05:32.592Z,48.07
2022-12-17T23:07:59.771Z,44.53
2022-12-17T23:10:27.491Z,48.40
2022-12-17T23:12:54.971Z,43.67
2022-12-17T23:15:21.401Z,46.30
2022-12-17T23:17:48.622Z,50.23
2022-12-17T23:20:16.315Z,43.87
2022-12-17T23:22:42.940Z,42.77
2022-12-17T23:25:10.699Z,45.73
2022-12-17T23:27:37.399Z,46.60
2022-12-17T23:30:06.137Z,49.80
2022-12-17T23:32:32.997Z,47.83
2022-12-17T23:34:59.476Z,41.03
2022-12-17T23:37:25.995Z,36.70
2022-12-17T23:39:52.494Z,39.70
2022-12-17T23:42:18.981Z,42.70
2022-12-17T23:44:45.428Z,46.13
2022-12-17T23:47:12.174Z,36.97
2022-12-17T23:49:38.664Z,38.53
2022-12-17T23:52:05.537Z,41.27
2022-12-17T23:54:32.084Z,39.70
2022-12-17T23:56:58.558Z,42.73
2022-12-17T23:59:25.061Z,44.33
